createdAt,value
2018-12-13T00:00:06.207Z,95021.92
2018-12-13T00:02:34.483Z,95017.56
2018-12-13T00:05:02.741Z,95016.86
2018-12-13T00:07:30.998Z,95015.69
2018-12-13T00:09:59.297Z,94996.66
2018-12-13T00:12:27.668Z,94992.00
2018-12-13T00:14:55.961Z,94995.93
2018-12-13T00:17:24.248Z,94986.91
2018-12-13T00:19:52.547Z,94995.38
2018-12-13T00:22:21.185Z,94985.73
2018-12-13T00:24:49.440Z,94988.50
2018-12-13T00:27:17.727Z,94985.16
2018-12-13T00:29:46.015Z,94982.83
2018-12-13T00:32:14.270Z,94982.15
2018-12-13T00:37:20.781Z,94978.25
2018-12-13T00:39:49.057Z,94972.59
2018-12-13T00:42:17.323Z,94972.14
2018-12-13T00:44:45.599Z,94969.27
2018-12-13T00:47:13.861Z,94977.91
2018-12-13T00:49:42.144Z,94973.42
2018-12-13T00:52:10.435Z,94962.46
2018-12-13T00:54:38.800Z,94963.98
2018-12-13T00:57:07.068Z,94961.45
2018-12-13T00:59:35.345Z,94964.77
2018-12-13T01:02:03.667Z,94961.58
2018-12-13T01:04:32.069Z,94959.72
2018-12-13T01:07:00.449Z,94957.56
2018-12-13T01:09:28.739Z,94956.64
2018-12-13T01:11:57.032Z,94952.33
2018-12-13T01:17:03.480Z,94957.45
2018-12-13T01:19:31.799Z,94957.02
2018-12-13T01:22:00.092Z,94955.20
2018-12-13T01:24:28.392Z,94963.84
2018-12-13T01:26:56.746Z,94960.90
2018-12-13T01:29:25.073Z,94950.38
2018-12-13T01:31:53.331Z,94955.54
2018-12-13T01:36:59.801Z,94943.95
2018-12-13T01:39:28.071Z,94948.94
2018-12-13T01:41:56.381Z,94949.43
2018-12-13T01:44:24.639Z,94944.60
2018-12-13T01:46:52.915Z,94949.38
2018-12-13T01:49:21.176Z,94946.98
2018-12-13T01:51:49.443Z,94944.88
2018-12-13T01:54:17.972Z,94940.41
2018-12-13T01:56:46.228Z,94941.03
2018-12-13T01:59:14.515Z,94933.44
2018-12-13T02:01:42.852Z,94931.78
2018-12-13T02:04:11.548Z,94925.86
2018-12-13T02:06:39.896Z,94923.59
2018-12-13T02:09:08.487Z,94922.29
2018-12-13T02:11:36.746Z,94917.83
2018-12-13T02:14:05.029Z,94908.53
2018-12-13T02:16:33.295Z,94902.36
2018-12-13T02:19:01.563Z,94909.47
2018-12-13T02:21:29.935Z,94908.13
2018-12-13T02:23:58.199Z,94910.70
2018-12-13T02:26:26.575Z,94912.62
2018-12-13T02:28:54.871Z,94903.37
2018-12-13T02:31:23.132Z,94897.59
2018-12-13T02:33:51.464Z,94907.18
2018-12-13T02:36:19.748Z,94899.56
2018-12-13T02:38:48.060Z,94903.19
2018-12-13T02:41:16.332Z,94892.65
2018-12-13T02:43:44.615Z,94892.76
2018-12-13T02:46:12.869Z,94889.57
2018-12-13T02:48:41.143Z,94889.98
2018-12-13T02:51:09.408Z,94883.80
2018-12-13T02:53:37.781Z,94886.61
2018-12-13T02:56:06.141Z,94880.52
2018-12-13T03:01:12.767Z,94876.36
2018-12-13T03:03:41.065Z,94874.95
2018-12-13T03:06:09.325Z,94875.48
2018-12-13T03:08:37.634Z,94876.17
2018-12-13T03:11:05.960Z,94870.77
2018-12-13T03:13:34.223Z,94874.05
2018-12-13T03:16:02.502Z,94865.72
2018-12-13T03:18:31.029Z,94863.13
2018-12-13T03:20:59.289Z,94866.32
2018-12-13T03:26:06.009Z,94860.22
2018-12-13T03:28:34.326Z,94851.34
2018-12-13T03:31:02.586Z,94862.24
2018-12-13T03:33:30.861Z,94851.67
2018-12-13T03:35:59.135Z,94849.36
2018-12-13T03:38:27.494Z,94849.25
2018-12-13T03:40:55.830Z,94847.30
2018-12-13T03:43:24.250Z,94840.03
2018-12-13T03:45:52.537Z,94836.58
2018-12-13T03:48:20.843Z,94842.28
2018-12-13T03:50:49.401Z,94839.07
2018-12-13T03:53:17.659Z,94842.06
2018-12-13T03:55:45.995Z,94834.40
2018-12-13T03:58:14.251Z,94837.02
2018-12-13T04:00:42.585Z,94834.78
2018-12-13T04:03:10.934Z,94833.91
2018-12-13T04:05:40.459Z,94829.44
2018-12-13T04:08:08.738Z,94827.18
2018-12-13T04:10:37.015Z,94822.92
2018-12-13T04:13:05.267Z,94823.53
2018-12-13T04:15:33.603Z,94820.69
2018-12-13T04:18:01.916Z,94820.83
2018-12-13T04:20:30.214Z,94803.17
2018-12-13T04:22:58.493Z,94813.56
2018-12-13T04:25:26.768Z,94818.22
2018-12-13T04:27:55.064Z,94820.92
2018-12-13T04:30:23.341Z,94817.14
2018-12-13T04:32:51.595Z,94810.05
2018-12-13T04:35:19.871Z,94809.45
2018-12-13T04:40:26.293Z,94809.87
2018-12-13T04:42:54.547Z,94810.34
2018-12-13T04:45:22.824Z,94806.27
2018-12-13T04:47:51.125Z,94801.45
2018-12-13T04:50:19.407Z,94800.38
2018-12-13T04:52:47.665Z,94795.33
2018-12-13T04:55:15.976Z,94792.48
2018-12-13T04:57:44.247Z,94789.20
2018-12-13T05:00:13.023Z,94788.83
2018-12-13T05:02:41.325Z,94779.42
2018-12-13T05:05:09.640Z,94781.17
2018-12-13T05:07:41.750Z,94767.22
2018-12-13T05:10:08.834Z,94770.63
2018-12-13T05:12:37.115Z,94777.06
2018-12-13T05:15:05.514Z,94772.74
2018-12-13T05:17:33.809Z,94775.56
2018-12-13T05:20:02.088Z,94768.20
2018-12-13T05:22:30.368Z,94768.44
2018-12-13T05:24:58.693Z,94770.50
2018-12-13T05:27:27.001Z,94772.95
2018-12-13T05:29:55.260Z,94766.11
2018-12-13T05:35:04.048Z,94764.55
2018-12-13T05:37:32.331Z,94766.86
2018-12-13T05:40:00.607Z,94758.42
2018-12-13T05:42:28.869Z,94752.42
2018-12-13T05:44:57.145Z,94755.13
2018-12-13T05:47:25.413Z,94756.28
2018-12-13T05:49:53.732Z,94747.81
2018-12-13T05:52:22.001Z,94755.27
2018-12-13T05:54:50.268Z,94757.87
2018-12-13T05:57:18.561Z,94750.44
2018-12-13T05:59:46.873Z,94749.27
2018-12-13T06:02:15.146Z,94755.82
2018-12-13T06:04:43.448Z,94754.63
2018-12-13T06:07:11.986Z,94748.50
2018-12-13T06:09:40.250Z,94753.22
2018-12-13T06:12:08.514Z,94749.27
2018-12-13T06:14:36.795Z,94747.42
2018-12-13T06:17:05.088Z,94743.30
2018-12-13T06:19:33.353Z,94747.48
2018-12-13T06:22:01.623Z,94754.53
2018-12-13T06:24:29.945Z,94749.97
2018-12-13T06:26:58.217Z,94743.73
2018-12-13T06:29:26.519Z,94747.48
2018-12-13T06:31:54.857Z,94748.47
2018-12-13T06:34:23.146Z,94739.33
2018-12-13T06:36:51.422Z,94745.98
2018-12-13T06:39:19.693Z,94747.39
2018-12-13T06:41:48.005Z,94750.22
2018-12-13T06:44:16.264Z,94750.55
2018-12-13T06:49:22.788Z,94759.07
2018-12-13T06:51:51.044Z,94756.56
2018-12-13T06:54:19.319Z,94757.27
2018-12-13T06:56:47.583Z,94754.91
2018-12-13T06:59:15.853Z,94755.25
2018-12-13T07:01:44.425Z,94763.31
2018-12-13T07:04:12.875Z,94759.11
2018-12-13T07:06:41.132Z,94756.41
2018-12-13T07:09:09.403Z,94760.81
2018-12-13T07:11:37.680Z,94761.20
2018-12-13T07:14:06.480Z,94763.52
2018-12-13T07:16:34.901Z,94761.55
2018-12-13T07:19:03.176Z,94761.55
2018-12-13T07:21:31.443Z,94762.23
2018-12-13T07:23:59.786Z,94758.83
2018-12-13T07:26:28.040Z,94749.91
2018-12-13T07:28:56.325Z,94754.41
2018-12-13T07:31:24.629Z,94759.44
2018-12-13T07:33:52.891Z,94756.67
2018-12-13T07:36:21.172Z,94747.16
2018-12-13T07:38:49.472Z,94757.72
2018-12-13T07:41:17.752Z,94747.20
2018-12-13T07:43:46.012Z,94745.58
2018-12-13T07:46:14.281Z,94744.48
2018-12-13T07:51:25.757Z,94752.02
2018-12-13T07:53:54.073Z,94749.17
2018-12-13T07:56:22.392Z,94747.78
2018-12-13T07:58:50.677Z,94750.59
2018-12-13T08:01:18.967Z,94751.75
2018-12-13T08:03:47.268Z,94748.48
2018-12-13T08:06:15.544Z,94748.05
2018-12-13T08:08:43.808Z,94744.25
2018-12-13T08:11:12.108Z,94748.02
2018-12-13T08:13:40.408Z,94742.63
2018-12-13T08:16:08.698Z,94746.36
2018-12-13T08:18:36.959Z,94746.50
2018-12-13T08:21:05.282Z,94744.44
2018-12-13T08:23:33.562Z,94746.62
2018-12-13T08:26:02.025Z,94742.14
2018-12-13T08:28:30.324Z,94746.84
2018-12-13T08:30:58.593Z,94737.38
2018-12-13T08:33:26.851Z,94736.08
2018-12-13T08:35:55.125Z,94738.43
2018-12-13T08:38:27.210Z,94738.41
2018-12-13T08:40:53.672Z,94734.42
2018-12-13T08:43:22.041Z,94732.78
2018-12-13T08:45:50.348Z,94739.02
2018-12-13T08:48:19.160Z,94737.62
2018-12-13T08:50:48.503Z,94724.23
2018-12-13T08:53:16.811Z,94726.59
2018-12-13T08:55:45.082Z,94732.81
2018-12-13T08:58:13.320Z,94732.21
2018-12-13T09:00:41.696Z,94737.55
2018-12-13T09:03:09.988Z,94734.89
2018-12-13T09:05:38.282Z,94727.60
2018-12-13T09:08:06.557Z,94717.75
2018-12-13T09:10:34.838Z,94712.59
2018-12-13T09:13:03.180Z,94716.73
2018-12-13T09:15:31.472Z,94711.50
2018-12-13T09:17:59.760Z,94713.66
2018-12-13T09:20:28.043Z,94708.73
2018-12-13T09:22:56.326Z,94712.50
2018-12-13T09:25:24.617Z,94715.66
2018-12-13T09:27:52.868Z,94714.98
2018-12-13T09:30:21.202Z,94716.70
2018-12-13T09:35:27.703Z,94709.85
2018-12-13T09:37:56.044Z,94702.14
2018-12-13T09:40:24.292Z,94702.89
2018-12-13T09:42:52.588Z,94710.74
2018-12-13T09:45:20.831Z,94709.66
2018-12-13T09:47:49.140Z,94710.74
2018-12-13T09:50:17.423Z,94707.45
2018-12-13T09:52:45.725Z,94707.20
2018-12-13T09:55:14.012Z,94699.61
2018-12-13T09:57:42.333Z,94688.30
2018-12-13T10:00:11.013Z,94691.66
2018-12-13T10:02:39.258Z,94688.67
2018-12-13T10:05:07.619Z,94680.11
2018-12-13T10:07:35.857Z,94678.03
2018-12-13T10:10:04.791Z,94681.02
2018-12-13T10:12:33.096Z,94677.62
2018-12-13T10:15:01.355Z,94674.64
2018-12-13T10:17:29.623Z,94659.63
2018-12-13T10:22:36.076Z,94661.84
2018-12-13T10:25:05.217Z,94668.98
2018-12-13T10:27:33.492Z,94661.83
2018-12-13T10:30:02.677Z,94660.56
2018-12-13T10:32:31.013Z,94666.12
2018-12-13T10:34:59.283Z,94658.27
2018-12-13T10:37:27.660Z,94661.34
2018-12-13T10:39:56.006Z,94648.17
2018-12-13T10:42:24.289Z,94648.78
2018-12-13T10:44:52.697Z,94658.17
2018-12-13T10:47:21.099Z,94654.03
2018-12-13T10:49:49.368Z,94655.28
2018-12-13T10:52:17.873Z,94640.53
2018-12-13T10:54:46.115Z,94648.92
2018-12-13T10:57:14.397Z,94642.29
2018-12-13T10:59:42.757Z,94649.11
2018-12-13T11:05:17.147Z,94636.34
2018-12-13T11:07:45.412Z,94648.17
2018-12-13T11:10:13.757Z,94644.33
2018-12-13T11:12:42.059Z,94643.14
2018-12-13T11:15:10.320Z,94637.97
2018-12-13T11:17:38.646Z,94640.06
2018-12-13T11:20:07.036Z,94635.28
2018-12-13T11:22:35.292Z,94633.20
2018-12-13T11:25:04.084Z,94629.67
2018-12-13T11:30:56.992Z,94621.64
2018-12-13T11:33:25.259Z,94620.11
2018-12-13T11:35:53.508Z,94623.16
2018-12-13T11:38:21.775Z,94626.64
2018-12-13T11:40:50.117Z,94617.55
2018-12-13T11:43:18.371Z,94618.94
2018-12-13T11:45:46.737Z,94616.82
2018-12-13T11:48:15.015Z,94611.42
2018-12-13T11:50:43.280Z,94614.23
2018-12-13T11:53:11.559Z,94613.05
2018-12-13T11:55:39.992Z,94603.34
2018-12-13T11:58:08.283Z,94602.83
2018-12-13T12:00:36.566Z,94598.45
2018-12-13T12:03:04.932Z,94604.84
2018-12-13T12:05:33.187Z,94606.49
2018-12-13T12:08:01.613Z,94602.13
2018-12-13T12:10:29.924Z,94598.33
2018-12-13T12:12:58.201Z,94600.97
2018-12-13T12:15:26.615Z,94607.38
2018-12-13T12:17:54.951Z,94606.61
2018-12-13T12:20:23.217Z,94610.34
2018-12-13T12:22:51.462Z,94609.06
2018-12-13T12:25:19.759Z,94598.27
2018-12-13T12:27:48.031Z,94597.27
2018-12-13T12:30:16.316Z,94600.02
2018-12-13T12:32:44.667Z,94604.52
2018-12-13T12:35:13.022Z,94599.46
2018-12-13T12:37:41.325Z,94595.11
2018-12-13T12:40:09.658Z,94604.21
2018-12-13T12:42:37.903Z,94592.23
2018-12-13T12:45:06.418Z,94595.73
2018-12-13T12:47:34.857Z,94592.15
2018-12-13T12:50:03.618Z,94600.12
2018-12-13T12:52:31.880Z,94591.19
2018-12-13T12:55:00.166Z,94594.17
2018-12-13T12:57:28.414Z,94584.38
2018-12-13T12:59:56.679Z,94589.72
2018-12-13T13:02:25.252Z,94593.69
2018-12-13T13:04:53.539Z,94598.02
2018-12-13T13:07:21.791Z,94591.48
2018-12-13T13:09:50.089Z,94587.69
2018-12-13T13:12:18.369Z,94588.34
2018-12-13T13:14:46.612Z,94588.66
2018-12-13T13:17:14.927Z,94588.87
2018-12-13T13:19:43.221Z,94596.26
2018-12-13T13:22:11.472Z,94579.85
2018-12-13T13:24:39.755Z,94582.30
2018-12-13T13:27:08.026Z,94600.58
2018-12-13T13:29:36.340Z,94596.51
2018-12-13T13:32:04.731Z,94598.36
2018-12-13T13:34:33.040Z,94596.84
2018-12-13T13:37:01.380Z,94598.88
2018-12-13T13:39:31.674Z,94601.87
2018-12-13T13:42:00.195Z,94603.23
2018-12-13T13:47:08.578Z,94595.73
2018-12-13T13:49:37.010Z,94597.86
2018-12-13T13:52:05.377Z,94602.30
2018-12-13T13:54:33.703Z,94590.45
2018-12-13T13:57:02.005Z,94600.42
2018-12-13T13:59:30.255Z,94600.89
2018-12-13T14:01:58.560Z,94599.02
2018-12-13T14:04:26.843Z,94595.75
2018-12-13T14:06:55.261Z,94599.39
2018-12-13T14:09:23.677Z,94594.69
2018-12-13T14:11:51.999Z,94601.14
2018-12-13T14:14:20.283Z,94592.81
2018-12-13T14:16:48.568Z,94597.28
2018-12-13T14:19:16.907Z,94597.14
2018-12-13T14:21:45.224Z,94593.88
2018-12-13T14:24:13.516Z,94595.03
2018-12-13T14:26:41.788Z,94610.63
2018-12-13T14:29:10.039Z,94597.61
2018-12-13T14:31:38.303Z,94602.06
2018-12-13T14:34:06.657Z,94601.94
2018-12-13T14:36:34.918Z,94594.92
2018-12-13T14:41:45.337Z,94598.19
2018-12-13T14:44:13.636Z,94607.81
2018-12-13T14:46:41.973Z,94610.62
2018-12-13T14:49:10.267Z,94613.66
2018-12-13T14:51:38.602Z,94610.33
2018-12-13T14:54:06.904Z,94612.53
2018-12-13T14:56:35.210Z,94614.98
2018-12-13T14:59:03.594Z,94616.21
2018-12-13T15:01:31.910Z,94615.37
2018-12-13T15:04:00.189Z,94626.17
2018-12-13T15:06:28.574Z,94626.47
2018-12-13T15:08:56.856Z,94624.84
2018-12-13T15:11:25.153Z,94627.86
2018-12-13T15:13:53.405Z,94622.11
2018-12-13T15:16:21.948Z,94628.77
2018-12-13T15:18:50.256Z,94627.10
2018-12-13T15:21:18.513Z,94625.80
2018-12-13T15:23:46.819Z,94617.49
2018-12-13T15:26:15.119Z,94629.19
2018-12-13T15:28:43.372Z,94624.05
2018-12-13T15:31:11.659Z,94623.36
2018-12-13T15:33:39.942Z,94627.66
2018-12-13T15:36:08.215Z,94619.34
2018-12-13T15:38:36.551Z,94626.70
2018-12-13T15:41:04.808Z,94623.92
2018-12-13T15:43:33.099Z,94628.14
2018-12-13T15:46:01.368Z,94626.46
2018-12-13T15:48:29.679Z,94634.42
2018-12-13T15:50:57.971Z,94633.85
2018-12-13T15:53:26.215Z,94631.01
2018-12-13T15:55:54.469Z,94639.81
2018-12-13T15:58:22.791Z,94639.75
2018-12-13T16:00:51.112Z,94647.93
2018-12-13T16:03:19.443Z,94637.08
2018-12-13T16:05:47.756Z,94642.54
2018-12-13T16:08:16.016Z,94643.85
2018-12-13T16:10:44.388Z,94645.30
2018-12-13T16:15:51.133Z,94650.81
2018-12-13T16:18:19.472Z,94653.73
2018-12-13T16:20:47.722Z,94650.05
2018-12-13T16:25:54.436Z,94650.05
2018-12-13T16:28:22.726Z,94651.67
2018-12-13T16:30:51.089Z,94646.41
2018-12-13T16:33:19.368Z,94649.65
2018-12-13T16:35:47.687Z,94650.87
2018-12-13T16:38:15.941Z,94641.23
2018-12-13T16:40:44.250Z,94651.21
2018-12-13T16:43:12.581Z,94658.94
2018-12-13T16:45:40.831Z,94656.40
2018-12-13T16:48:09.157Z,94651.03
2018-12-13T16:50:37.472Z,94656.03
2018-12-13T16:53:05.756Z,94654.75
2018-12-13T16:55:34.108Z,94660.50
2018-12-13T16:58:02.371Z,94654.16
2018-12-13T17:00:30.637Z,94655.15
2018-12-13T17:02:59.044Z,94654.72
2018-12-13T17:05:27.615Z,94650.70
2018-12-13T17:07:55.867Z,94653.00
2018-12-13T17:10:24.188Z,94657.29
2018-12-13T17:12:52.533Z,94657.66
2018-12-13T17:15:20.825Z,94662.19
2018-12-13T17:17:49.208Z,94668.38
2018-12-13T17:20:17.573Z,94664.06
2018-12-13T17:22:45.872Z,94665.06
2018-12-13T17:25:14.124Z,94666.27
2018-12-13T17:30:20.651Z,94664.85
2018-12-13T17:32:48.948Z,94663.41
2018-12-13T17:35:17.207Z,94663.72
2018-12-13T17:37:45.558Z,94654.66
2018-12-13T17:40:13.968Z,94669.08
2018-12-13T17:42:42.276Z,94662.44
2018-12-13T17:45:10.592Z,94666.66
2018-12-13T17:47:38.914Z,94672.27
2018-12-13T17:50:07.332Z,94668.00
2018-12-13T17:52:35.580Z,94666.02
2018-12-13T17:55:04.839Z,94674.59
2018-12-13T17:57:34.440Z,94671.47
2018-12-13T18:00:02.891Z,94662.70
2018-12-13T18:02:31.180Z,94655.73
2018-12-13T18:04:59.489Z,94666.59
2018-12-13T18:07:27.743Z,94677.99
2018-12-13T18:09:56.048Z,94681.36
2018-12-13T18:12:25.327Z,94683.22
2018-12-13T18:14:53.653Z,94681.02
2018-12-13T18:17:21.915Z,94680.46
2018-12-13T18:19:50.213Z,94679.39
2018-12-13T18:22:18.527Z,94687.87
2018-12-13T18:24:46.865Z,94684.91
2018-12-13T18:27:15.307Z,94681.60
2018-12-13T18:29:43.672Z,94683.22
2018-12-13T18:32:11.977Z,94680.44
2018-12-13T18:34:40.244Z,94682.19
2018-12-13T18:37:08.566Z,94683.22
2018-12-13T18:39:36.911Z,94677.95
2018-12-13T18:42:05.163Z,94674.92
2018-12-13T18:44:33.551Z,94683.80
2018-12-13T18:47:02.178Z,94678.75
2018-12-13T18:49:30.437Z,94681.35
2018-12-13T18:51:58.744Z,94675.97
2018-12-13T18:54:27.039Z,94687.39
2018-12-13T18:56:55.334Z,94687.79
2018-12-13T18:59:23.627Z,94685.05
2018-12-13T19:01:51.888Z,94677.96
2018-12-13T19:04:20.152Z,94684.28
2018-12-13T19:06:48.483Z,94689.13
2018-12-13T19:09:16.791Z,94688.36
2018-12-13T19:11:45.110Z,94687.45
2018-12-13T19:14:13.373Z,94693.16
2018-12-13T19:16:41.704Z,94689.25
2018-12-13T19:19:09.991Z,94688.06
2018-12-13T19:21:38.255Z,94693.39
2018-12-13T19:24:06.559Z,94684.30
2018-12-13T19:26:34.926Z,94689.59
2018-12-13T19:29:03.230Z,94686.01
2018-12-13T19:31:31.483Z,94677.71
2018-12-13T19:33:59.783Z,94681.00
2018-12-13T19:36:28.074Z,94673.48
2018-12-13T19:41:34.593Z,94680.06
2018-12-13T19:44:02.925Z,94694.09
2018-12-13T19:46:31.226Z,94697.67
2018-12-13T19:48:59.536Z,94694.89
2018-12-13T19:51:27.819Z,94696.87
2018-12-13T19:53:56.177Z,94694.31
2018-12-13T19:56:24.436Z,94699.70
2018-12-13T19:58:52.766Z,94707.48
2018-12-13T20:01:21.058Z,94703.11
2018-12-13T20:03:49.352Z,94698.48
2018-12-13T20:06:17.647Z,94704.02
2018-12-13T20:08:45.944Z,94708.92
2018-12-13T20:11:14.204Z,94706.53
2018-12-13T20:13:42.563Z,94702.92
2018-12-13T20:16:10.823Z,94698.50
2018-12-13T20:18:39.085Z,94684.02
2018-12-13T20:21:07.420Z,94705.06
2018-12-13T20:23:35.702Z,94706.92
2018-12-13T20:26:04.088Z,94716.02
2018-12-13T20:28:32.415Z,94712.80
2018-12-13T20:31:00.672Z,94716.44
2018-12-13T20:33:28.968Z,94710.91
2018-12-13T20:35:57.228Z,94710.13
2018-12-13T20:38:25.587Z,94710.58
2018-12-13T20:40:53.845Z,94710.88
2018-12-13T20:43:22.148Z,94711.58
2018-12-13T20:45:50.413Z,94713.17
2018-12-13T20:48:18.720Z,94708.19
2018-12-13T20:50:47.001Z,94708.20
2018-12-13T20:55:54.377Z,94706.78
2018-12-13T20:58:22.642Z,94704.16
2018-12-13T21:00:51.685Z,94707.30
2018-12-13T21:03:20.017Z,94702.61
2018-12-13T21:05:48.332Z,94709.95
2018-12-13T21:08:16.685Z,94717.92
2018-12-13T21:10:44.988Z,94711.48
2018-12-13T21:13:13.291Z,94720.29
2018-12-13T21:15:41.576Z,94717.34
2018-12-13T21:18:09.832Z,94705.73
2018-12-13T21:20:38.141Z,94710.64
2018-12-13T21:23:06.485Z,94704.73
2018-12-13T21:25:34.784Z,94702.38
2018-12-13T21:28:03.080Z,94705.28
2018-12-13T21:30:31.371Z,94712.34
2018-12-13T21:33:00.593Z,94705.89
2018-12-13T21:35:29.160Z,94705.02
2018-12-13T21:37:57.559Z,94696.86
2018-12-13T21:40:25.847Z,94701.17
2018-12-13T21:42:54.152Z,94702.29
2018-12-13T21:45:22.451Z,94700.88
2018-12-13T21:47:50.740Z,94704.27
2018-12-13T21:50:19.025Z,94701.60
2018-12-13T21:52:47.276Z,94701.66
2018-12-13T21:55:15.626Z,94706.19
2018-12-13T21:57:43.904Z,94705.03
2018-12-13T22:00:12.166Z,94696.30
2018-12-13T22:02:40.452Z,94707.20
2018-12-13T22:05:08.984Z,94706.53
2018-12-13T22:07:37.252Z,94703.31
2018-12-13T22:10:06.997Z,94702.75
2018-12-13T22:12:35.267Z,94693.00
2018-12-13T22:15:03.795Z,94703.70
2018-12-13T22:17:32.047Z,94707.60
2018-12-13T22:20:00.323Z,94712.25
2018-12-13T22:22:28.646Z,94715.38
2018-12-13T22:24:56.908Z,94717.00
2018-12-13T22:27:25.261Z,94717.47
2018-12-13T22:29:53.596Z,94716.77
2018-12-13T22:32:21.932Z,94722.17
2018-12-13T22:34:50.239Z,94729.70
2018-12-13T22:37:18.534Z,94725.02
2018-12-13T22:39:46.894Z,94721.58
2018-12-13T22:42:15.176Z,94709.09
2018-12-13T22:44:43.471Z,94720.70
2018-12-13T22:47:11.727Z,94721.41
2018-12-13T22:52:18.137Z,94720.16
2018-12-13T22:54:46.525Z,94711.42
2018-12-13T22:57:14.812Z,94728.19
2018-12-13T22:59:43.067Z,94725.60
2018-12-13T23:02:11.443Z,94729.52
2018-12-13T23:04:39.699Z,94722.94
2018-12-13T23:07:08.004Z,94724.72
2018-12-13T23:09:36.336Z,94720.06
2018-12-13T23:12:04.609Z,94721.73
2018-12-13T23:14:32.872Z,94721.08
2018-12-13T23:17:01.203Z,94718.45
2018-12-13T23:19:29.502Z,94724.39
2018-12-13T23:21:57.757Z,94727.30
2018-12-13T23:24:26.037Z,94711.59
2018-12-13T23:26:54.324Z,94719.92
2018-12-13T23:29:22.630Z,94710.88
2018-12-13T23:31:50.917Z,94720.53
2018-12-13T23:34:19.187Z,94716.60
2018-12-13T23:36:47.476Z,94719.95
2018-12-13T23:39:15.790Z,94718.75
2018-12-13T23:41:44.076Z,94725.61
2018-12-13T23:46:50.595Z,94728.36
2018-12-13T23:49:18.896Z,94723.39
2018-12-13T23:51:47.149Z,94728.38
2018-12-13T23:54:15.436Z,94733.31
2018-12-13T23:56:43.731Z,94733.80
2018-12-13T23:59:12.069Z,94724.56
